Time;durP1;ratioP1;P1;durP2;ratioP2;P2;SDS_P1;SDS_P2;PMS_P1;PMS_P2;Temp;Humidity;BMP_temperature;BMP_pressure;BME280_temperature;BME280_humidity;BME280_pressure;Samples;Min_cycle;Max_cycle;Signal;HPM_P1;HPM_P2
2023/07/29 00:01:57;;;;;;;8.32;1.83;;;;;;;18.23;100.00;99959.78;4841833;29;20049;-73
2023/07/29 00:05:02;;;;;;;5.65;1.52;;;;;;;18.22;100.00;99958.13;4841792;29;20045;-73
2023/07/29 00:08:05;;;;;;;2.92;1.73;;;;;;;18.15;100.00;99967.56;4841738;29;20419;-73
2023/07/29 00:11:09;;;;;;;6.13;1.50;;;;;;;18.15;100.00;99959.63;4841657;29;20045;-73
2023/07/29 00:14:12;;;;;;;6.03;1.40;;;;;;;18.22;100.00;99954.59;4841709;29;20182;-73
2023/07/29 00:17:15;;;;;;;8.52;1.65;;;;;;;18.25;100.00;99955.19;4841904;29;20112;-73
2023/07/29 00:20:19;;;;;;;10.57;2.00;;;;;;;18.16;100.00;99948.09;4841509;29;20191;-73
2023/07/29 00:23:22;;;;;;;21.17;1.80;;;;;;;18.12;100.00;99944.91;4841607;29;20110;-73
2023/07/29 00:26:28;;;;;;;5.75;1.30;;;;;;;18.13;100.00;99943.09;4841564;29;20107;-74
2023/07/29 00:29:31;;;;;;;4.47;1.55;;;;;;;18.07;100.00;99935.72;4841652;29;20056;-73
2023/07/29 00:32:35;;;;;;;5.50;1.40;;;;;;;18.05;100.00;99943.78;4843999;29;20052;-74
2023/07/29 00:35:38;;;;;;;4.97;1.42;;;;;;;18.04;100.00;99933.38;4844003;29;20064;-74
2023/07/29 00:38:41;;;;;;;5.03;1.55;;;;;;;18.09;100.00;99928.47;4844009;29;20052;-74
2023/07/29 00:41:45;;;;;;;5.47;1.33;;;;;;;18.05;100.00;99929.72;4843900;29;20068;-74
2023/07/29 00:44:48;;;;;;;3.60;1.30;;;;;;;18.01;100.00;99923.91;4844694;29;20497;-74
2023/07/29 00:47:51;;;;;;;3.20;1.20;;;;;;;18.07;100.00;99919.84;4854499;29;20523;-74
2023/07/29 00:50:55;;;;;;;5.18;1.20;;;;;;;18.12;100.00;99915.81;4844470;29;20090;-74
2023/07/29 00:53:58;;;;;;;9.88;1.58;;;;;;;18.02;100.00;99914.16;4844594;29;20129;-74
2023/07/29 00:57:01;;;;;;;6.28;1.85;;;;;;;18.01;100.00;99915.13;4843992;29;20065;-74
2023/07/29 01:00:05;;;;;;;2.85;1.50;;;;;;;17.96;100.00;99912.91;4826215;29;20076;-74
2023/07/29 01:03:09;;;;;;;7.40;1.17;;;;;;;17.98;100.00;99912.78;4814851;29;20532;-74
2023/07/29 01:06:23;;;;;;;7.85;1.73;;;;;;;17.98;100.00;99899.53;4825933;29;20056;-74
2023/07/29 01:09:51;;;;;;;5.70;1.13;;;;;;;17.99;100.00;99902.03;4825932;29;20531;-74
2023/07/29 01:13:58;;;;;;;5.57;1.13;;;;;;;17.97;100.00;99911.94;4826163;29;20489;-73
2023/07/29 01:17:07;;;;;;;3.85;1.20;;;;;;;17.97;100.00;99914.59;4825046;29;20057;-74
2023/07/29 01:20:20;;;;;;;7.22;1.17;;;;;;;17.87;100.00;99906.66;4824823;29;20053;-74
2023/07/29 01:23:34;;;;;;;2.22;0.90;;;;;;;17.84;100.00;99896.38;4824944;29;20104;-74
2023/07/29 01:26:37;;;;;;;3.70;1.17;;;;;;;17.86;100.00;99904.97;4835462;29;20102;-74
2023/07/29 01:29:41;;;;;;;6.05;1.00;;;;;;;17.84;100.00;99909.59;4825640;29;20425;-74
2023/07/29 01:32:53;;;;;;;8.23;0.95;;;;;;;17.78;100.00;99906.69;4825586;29;20096;-74
2023/07/29 01:36:07;;;;;;;9.85;1.48;;;;;;;17.78;100.00;99906.69;4814171;29;20424;-74
2023/07/29 01:39:12;;;;;;;6.30;0.90;;;;;;;17.68;100.00;99911.97;4825827;29;20057;-74
2023/07/29 01:42:17;;;;;;;23.52;2.67;;;;;;;17.61;100.00;99911.69;4824596;29;20515;-74
2023/07/29 01:45:25;;;;;;;15.00;1.33;;;;;;;17.61;100.00;99910.81;4825335;29;20577;-74
2023/07/29 01:48:30;;;;;;;7.95;0.70;;;;;;;17.68;100.00;99914.59;4824749;29;20112;-74
2023/07/29 01:51:33;;;;;;;7.38;1.75;;;;;;;17.68;100.00;99904.03;4825332;29;20135;-74
2023/07/29 01:54:37;;;;;;;4.38;1.00;;;;;;;17.68;100.00;99909.31;4824449;29;20081;-74
2023/07/29 01:57:40;;;;;;;3.00;0.60;;;;;;;17.71;100.00;99900.25;4828558;29;20529;-73
2023/07/29 02:00:43;;;;;;;6.03;0.73;;;;;;;17.77;100.00;99892.63;4842569;29;20134;-73
2023/07/29 02:03:46;;;;;;;6.78;0.98;;;;;;;17.73;100.00;99877.97;4843304;29;20566;-74
2023/07/29 02:06:49;;;;;;;8.98;1.17;;;;;;;17.61;100.00;99887.91;4842539;29;20110;-74
2023/07/29 02:09:53;;;;;;;6.68;0.93;;;;;;;17.59;100.00;99889.00;4842199;29;20415;-74
2023/07/29 02:12:56;;;;;;;8.40;0.90;;;;;;;17.59;100.00;99889.84;4843190;29;20112;-74
2023/07/29 02:16:00;;;;;;;7.35;0.90;;;;;;;17.61;100.00;99884.38;4843158;29;20053;-73
2023/07/29 02:19:03;;;;;;;7.57;0.88;;;;;;;17.55;100.00;99884.94;4842216;29;20064;-74
2023/07/29 02:22:06;;;;;;;1.48;0.60;;;;;;;17.62;100.00;99878.97;4842316;29;20053;-74
2023/07/29 02:25:10;;;;;;;8.25;1.20;;;;;;;17.63;100.00;99867.41;4842191;29;20526;-74
2023/07/29 02:28:13;;;;;;;7.10;0.73;;;;;;;17.57;100.00;99860.06;4852736;29;20423;-74
2023/07/29 02:31:18;;;;;;;2.83;0.80;;;;;;;17.57;100.00;99853.94;4843070;29;20111;-74
2023/07/29 02:34:22;;;;;;;7.25;1.17;;;;;;;17.60;100.00;99857.13;4842717;29;20052;-73
2023/07/29 02:37:25;;;;;;;3.83;0.65;;;;;;;17.62;100.00;99854.34;4841914;29;20566;-73
2023/07/29 02:40:29;;;;;;;4.28;0.77;;;;;;;17.60;100.00;99854.47;4842003;29;20123;-73
2023/07/29 02:43:32;;;;;;;2.97;0.82;;;;;;;17.60;100.00;99851.84;4841917;29;20045;-73
2023/07/29 02:46:35;;;;;;;10.00;1.20;;;;;;;17.52;100.00;99835.88;4841807;29;20053;-74
2023/07/29 02:49:39;;;;;;;3.63;0.47;;;;;;;17.51;100.00;99833.34;4841901;29;20057;-74
2023/07/29 02:52:42;;;;;;;4.35;0.73;;;;;;;17.53;100.00;99839.34;4842768;29;20075;-74
2023/07/29 02:55:45;;;;;;;1.40;0.52;;;;;;;17.51;100.00;99836.00;4841940;29;20049;-73
2023/07/29 02:58:51;;;;;;;3.63;0.85;;;;;;;17.51;100.00;99828.06;4841463;29;20064;-74
2023/07/29 03:01:54;;;;;;;3.42;0.60;;;;;;;17.52;100.00;99829.75;4842307;29;20204;-73
2023/07/29 03:04:58;;;;;;;2.83;0.70;;;;;;;17.49;100.00;99836.16;4841338;29;20469;-74
2023/07/29 03:08:01;;;;;;;4.55;0.52;;;;;;;17.52;100.00;99830.59;4831100;29;20515;-74
2023/07/29 03:11:14;;;;;;;6.82;0.65;;;;;;;17.58;100.00;99832.66;4841476;29;20436;-73
2023/07/29 03:14:17;;;;;;;2.67;0.60;;;;;;;17.53;100.00;99836.69;4830932;29;20060;-74
2023/07/29 03:17:20;;;;;;;4.13;0.38;;;;;;;17.43;100.00;99845.47;4841469;29;20126;-74
2023/07/29 03:20:24;;;;;;;6.40;0.50;;;;;;;17.46;100.00;99846.19;4842099;29;20115;-74
2023/07/29 03:23:28;;;;;;;4.43;0.63;;;;;;;17.46;100.00;99831.16;4841375;29;20122;-74
2023/07/29 03:26:31;;;;;;;6.07;0.75;;;;;;;17.48;100.00;99842.41;4830849;29;20049;-74
2023/07/29 03:29:35;;;;;;;3.92;0.60;;;;;;;17.47;100.00;99834.63;4842025;29;20080;-74
2023/07/29 03:32:45;;;;;;;6.90;1.27;;;;;;;17.48;100.00;99826.53;4842041;29;20044;-73
2023/07/29 03:35:49;;;;;;;3.92;0.52;;;;;;;17.49;100.00;99824.75;4841138;29;20056;-73
2023/07/29 03:38:52;;;;;;;5.18;0.70;;;;;;;17.44;100.00;99826.00;4841991;29;20415;-74
2023/07/29 03:41:55;;;;;;;4.65;0.77;;;;;;;17.37;100.00;99822.25;4840849;29;20052;-74
2023/07/29 03:44:58;;;;;;;3.75;0.70;;;;;;;17.34;100.00;99835.75;4841000;29;20060;-73
2023/07/29 03:48:02;;;;;;;1.75;0.43;;;;;;;17.34;100.00;99830.47;4841005;29;20041;-74
2023/07/29 03:51:06;;;;;;;4.25;0.85;;;;;;;17.31;100.00;99830.72;4840043;29;20145;-74
2023/07/29 03:54:09;;;;;;;4.43;0.90;;;;;;;17.27;100.00;99812.69;4841010;29;20045;-74
2023/07/29 03:57:12;;;;;;;2.35;0.40;;;;;;;17.28;100.00;99830.19;4840836;29;20057;-74
2023/07/29 04:00:16;;;;;;;6.18;0.65;;;;;;;17.29;100.00;99831.84;4841761;29;20049;-74
2023/07/29 04:03:19;;;;;;;4.35;0.60;;;;;;;17.32;100.00;99828.94;4841605;29;20493;-74
2023/07/29 04:06:24;;;;;;;3.10;0.63;;;;;;;17.32;100.00;99829.75;4832243;29;20053;-74
2023/07/29 04:09:27;;;;;;;3.92;0.60;;;;;;;17.39;100.00;99822.13;4844321;29;20049;-74
2023/07/29 04:12:30;;;;;;;4.72;0.70;;;;;;;17.37;100.00;99827.53;4833938;29;20053;-74
2023/07/29 04:15:34;;;;;;;4.97;0.57;;;;;;;17.30;100.00;99821.16;4845527;29;20110;-74
2023/07/29 04:18:37;;;;;;;2.83;0.60;;;;;;;17.27;100.00;99817.97;4845259;29;20565;-74
2023/07/29 04:21:40;;;;;;;3.78;0.68;;;;;;;17.22;100.00;99833.38;4844236;29;20095;-74
2023/07/29 04:24:44;;;;;;;2.50;0.60;;;;;;;17.17;100.00;99831.19;4833573;29;20048;-74
2023/07/29 04:27:47;;;;;;;5.35;0.52;;;;;;;17.14;100.00;99831.44;4844195;29;20083;-74
2023/07/29 04:30:50;;;;;;;9.25;0.77;;;;;;;17.17;100.00;99834.66;4844795;29;20048;-74
2023/07/29 04:33:54;;;;;;;9.18;0.68;;;;;;;17.15;100.00;99835.75;4844977;29;20056;-74
2023/07/29 04:36:57;;;;;;;4.15;0.60;;;;;;;17.20;100.00;99844.09;4844873;29;20470;-75
2023/07/29 04:40:01;;;;;;;16.70;1.35;;;;;;;17.09;100.00;99838.94;4833331;29;20133;-74
2023/07/29 04:43:04;;;;;;;1.83;0.40;;;;;;;17.13;100.00;99849.13;4844906;29;20636;-74
2023/07/29 04:46:10;;;;;;;4.47;0.70;;;;;;;17.15;100.00;99849.78;4844566;29;20048;-73
2023/07/29 04:49:14;;;;;;;6.18;1.00;;;;;;;17.18;100.00;99846.03;4843772;29;20061;-73
2023/07/29 04:52:19;;;;;;;2.47;0.70;;;;;;;17.15;100.00;99836.59;4844644;29;20044;-73
2023/07/29 04:55:22;;;;;;;2.75;0.40;;;;;;;17.26;100.00;99838.28;4854382;29;20125;-73
2023/07/29 04:58:28;;;;;;;9.85;0.73;;;;;;;17.39;100.00;99833.53;4844230;29;20060;-73
2023/07/29 05:01:31;;;;;;;2.90;0.50;;;;;;;17.51;100.00;99825.44;4843450;29;20053;-73
2023/07/29 05:04:35;;;;;;;4.07;0.60;;;;;;;17.57;100.00;99830.97;4843382;29;20107;-73
2023/07/29 05:07:38;;;;;;;8.52;1.05;;;;;;;17.58;100.00;99835.31;4843846;29;20098;-73
2023/07/29 05:10:42;;;;;;;6.18;0.50;;;;;;;17.67;100.00;99831.78;4842968;29;20072;-73
2023/07/29 05:13:46;;;;;;;1.90;0.50;;;;;;;17.67;100.00;99825.66;4843483;29;20590;-74
2023/07/29 05:16:49;;;;;;;7.43;0.93;;;;;;;17.72;100.00;99827.91;4831805;29;20068;-74
2023/07/29 05:19:52;;;;;;;5.07;1.70;;;;;;;17.71;100.00;99831.50;4843565;29;20585;-74
2023/07/29 05:22:56;;;;;;;3.10;0.65;;;;;;;17.73;100.00;99826.91;4843178;29;20132;-74
2023/07/29 05:25:59;;;;;;;6.07;1.15;;;;;;;17.82;100.00;99828.72;4831828;29;20107;-74
2023/07/29 05:29:28;;;;;;;8.10;0.57;;;;;;;17.88;100.00;99831.63;4842473;29;20581;-74
2023/07/29 05:32:31;;;;;;;3.13;0.65;;;;;;;17.93;100.00;99830.34;4843061;29;20049;-74
2023/07/29 05:35:34;;;;;;;5.68;0.65;;;;;;;17.95;100.00;99845.13;4842940;29;20168;-75
2023/07/29 05:38:38;;;;;;;3.58;0.52;;;;;;;17.94;100.00;99848.75;4841876;29;20519;-73
2023/07/29 05:41:41;;;;;;;8.20;0.73;;;;;;;18.00;100.00;99848.16;4839947;29;20103;-76
2023/07/29 05:44:45;;;;;;;4.22;0.70;;;;;;;17.92;100.00;99842.75;4841686;29;20053;-77
2023/07/29 05:47:49;;;;;;;5.10;1.10;;;;;;;17.97;100.00;99843.16;4842853;29;20156;-77
2023/07/29 05:50:53;;;;;;;2.22;0.50;;;;;;;18.02;100.00;99850.66;4841854;29;20041;-74
2023/07/29 05:53:56;;;;;;;6.20;0.85;;;;;;;18.04;100.00;99860.13;4841833;29;20138;-75
2023/07/29 05:57:00;;;;;;;3.78;0.68;;;;;;;18.12;100.00;99872.63;4842769;29;20052;-75
2023/07/29 06:00:04;;;;;;;3.45;0.60;;;;;;;18.13;100.00;99861.06;4841404;29;20061;-75
2023/07/29 06:03:16;;;;;;;7.75;1.42;;;;;;;18.03;100.00;99841.75;4842708;29;20443;-75
2023/07/29 06:06:20;;;;;;;6.45;0.63;;;;;;;18.05;100.00;99821.28;4841763;29;20149;-74
2023/07/29 06:09:25;;;;;;;2.85;0.88;;;;;;;17.78;100.00;99857.28;4842327;29;20107;-74
2023/07/29 06:12:28;;;;;;;5.53;0.85;;;;;;;17.91;100.00;99845.56;4842165;29;20045;-77
2023/07/29 06:15:32;;;;;;;3.58;0.60;;;;;;;17.97;100.00;99842.34;4841565;29;20049;-76
2023/07/29 06:18:36;;;;;;;3.60;0.55;;;;;;;17.99;100.00;99850.94;4842306;29;20138;-77
2023/07/29 06:21:39;;;;;;;4.13;0.45;;;;;;;18.10;100.00;99848.13;4842479;29;20441;-75
2023/07/29 06:24:42;;;;;;;0.98;0.45;;;;;;;18.12;100.00;99851.44;4842538;29;20515;-75
2023/07/29 06:27:45;;;;;;;2.33;0.68;;;;;;;18.12;100.00;99840.88;4842395;29;20052;-77
2023/07/29 06:30:48;;;;;;;4.75;0.68;;;;;;;18.17;100.00;99837.81;4842706;29;20515;-76
2023/07/29 06:33:52;;;;;;;4.22;0.60;;;;;;;18.10;100.00;99837.56;4842517;29;20045;-86
2023/07/29 06:36:55;;;;;;;4.07;0.50;;;;;;;18.04;100.00;99835.50;4842345;29;20075;-81
2023/07/29 06:39:59;;;;;;;2.97;0.52;;;;;;;17.95;100.00;99834.53;4842431;29;20060;-83
2023/07/29 06:43:02;;;;;;;4.10;1.15;;;;;;;17.97;100.00;99847.63;4839056;29;20184;-82
2023/07/29 06:46:06;;;;;;;3.30;0.55;;;;;;;17.95;100.00;99847.75;4830665;29;20079;-73
2023/07/29 06:49:10;;;;;;;1.52;0.60;;;;;;;17.99;100.00;99872.94;4827819;29;20389;-77
2023/07/29 06:52:13;;;;;;;6.47;0.93;;;;;;;18.04;100.00;99876.00;4832977;29;20061;-76
2023/07/29 06:55:16;;;;;;;4.80;0.90;;;;;;;18.16;100.00;99862.59;4833586;29;20048;-73
2023/07/29 06:58:20;;;;;;;3.33;0.80;;;;;;;18.26;100.00;99866.88;4823894;29;20115;-73
2023/07/29 07:01:23;;;;;;;2.65;0.68;;;;;;;18.29;100.00;99873.69;4814942;29;20123;-72
2023/07/29 07:04:28;;;;;;;4.25;0.70;;;;;;;18.34;100.00;99877.53;4814134;29;20046;-73
2023/07/29 07:07:31;;;;;;;4.75;0.75;;;;;;;18.38;100.00;99871.97;4813466;29;20068;-72
2023/07/29 07:10:35;;;;;;;5.05;0.60;;;;;;;18.42;100.00;99887.41;4815173;29;20137;-73
2023/07/29 07:13:38;;;;;;;5.88;1.20;;;;;;;18.45;100.00;99894.25;4814747;29;20053;-73
2023/07/29 07:16:41;;;;;;;2.47;0.80;;;;;;;18.48;100.00;99889.47;4814549;29;20053;-72
2023/07/29 07:19:46;;;;;;;4.28;1.10;;;;;;;18.52;100.00;99892.66;4816920;29;20053;-73
2023/07/29 07:22:49;;;;;;;3.65;1.05;;;;;;;18.57;100.00;99887.78;4810989;29;20099;-73
2023/07/29 07:25:53;;;;;;;4.95;0.82;;;;;;;18.63;100.00;99887.16;4814039;29;20045;-73
2023/07/29 07:28:56;;;;;;;3.35;1.23;;;;;;;18.63;100.00;99891.63;4812319;29;20131;-73
2023/07/29 07:31:59;;;;;;;4.05;1.30;;;;;;;18.71;100.00;99892.56;4813020;29;20065;-73
2023/07/29 07:35:03;;;;;;;2.92;1.23;;;;;;;18.79;100.00;99898.00;4814506;29;20081;-77
2023/07/29 07:38:07;;;;;;;3.17;0.95;;;;;;;18.90;100.00;99894.31;4814569;29;20216;-73
2023/07/29 07:41:11;;;;;;;3.35;0.85;;;;;;;19.04;100.00;99896.41;4813278;29;20063;-73
2023/07/29 07:44:17;;;;;;;2.45;0.82;;;;;;;19.12;100.00;99893.03;4815209;29;20524;-73
2023/07/29 07:47:20;;;;;;;5.35;1.10;;;;;;;19.20;100.00;99890.44;4811379;29;20084;-73
2023/07/29 07:50:24;;;;;;;3.45;1.10;;;;;;;19.28;100.00;99887.88;4822422;29;20469;-73
2023/07/29 07:53:27;;;;;;;3.15;1.17;;;;;;;19.37;100.00;99870.25;4825727;29;20053;-73
2023/07/29 07:56:31;;;;;;;3.67;1.40;;;;;;;19.44;100.00;99871.28;4820064;29;20509;-73
2023/07/29 07:59:34;;;;;;;4.65;1.27;;;;;;;19.45;100.00;99872.94;4832873;29;20437;-73
2023/07/29 08:02:37;;;;;;;3.20;1.30;;;;;;;19.46;100.00;99869.34;4833374;29;20099;-73
2023/07/29 08:05:41;;;;;;;5.43;1.42;;;;;;;19.45;100.00;99888.84;4834128;29;20405;-73
2023/07/29 08:08:44;;;;;;;4.13;1.40;;;;;;;19.55;100.00;99891.41;4834678;29;20523;-73
2023/07/29 08:11:47;;;;;;;5.80;1.52;;;;;;;19.60;100.00;99897.09;4834777;29;20115;-73
2023/07/29 08:14:51;;;;;;;5.15;1.50;;;;;;;19.78;100.00;99888.31;4835520;29;20049;-73
2023/07/29 08:17:54;;;;;;;3.25;1.48;;;;;;;19.92;100.00;99890.41;4831332;29;20115;-73
2023/07/29 08:21:02;;;;;;;4.00;1.70;;;;;;;20.07;100.00;99903.91;4832018;29;20501;-74
2023/07/29 08:24:07;;;;;;;3.83;1.80;;;;;;;20.10;100.00;99899.16;4834595;29;20107;-73
2023/07/29 08:27:10;;;;;;;3.28;1.45;;;;;;;20.28;100.00;99896.41;4835508;29;20571;-73
2023/07/29 08:30:14;;;;;;;2.13;1.20;;;;;;;20.38;100.00;99902.44;4831864;29;20111;-74
2023/07/29 08:33:17;;;;;;;5.97;1.77;;;;;;;20.42;100.00;99905.59;4832385;29;20050;-73
2023/07/29 08:36:21;;;;;;;4.75;1.48;;;;;;;20.46;100.00;99899.00;4834006;29;20040;-74
2023/07/29 08:39:24;;;;;;;3.42;1.33;;;;;;;20.45;97.79;99892.00;4835011;29;20053;-73
2023/07/29 08:42:32;;;;;;;5.03;1.33;;;;;;;20.48;98.49;99886.38;4821895;29;20056;-73
2023/07/29 08:45:36;;;;;;;4.65;1.40;;;;;;;20.63;97.17;99890.13;4831264;29;20137;-73
2023/07/29 08:48:41;;;;;;;11.55;1.90;;;;;;;20.82;93.97;99904.16;4832769;29;20045;-73
2023/07/29 08:51:46;;;;;;;6.25;3.58;;;;;;;20.84;94.20;99897.69;4833846;29;20144;-73
2023/07/29 08:54:50;;;;;;;6.72;4.10;;;;;;;20.90;90.95;99902.34;4834157;29;20061;-74
2023/07/29 08:57:54;;;;;;;11.70;3.88;;;;;;;20.75;87.98;99897.81;4834311;29;20056;-74
2023/07/29 09:00:57;;;;;;;9.93;3.92;;;;;;;20.78;87.47;99900.16;4833392;29;20053;-73
2023/07/29 09:04:01;;;;;;;7.22;2.53;;;;;;;20.75;86.50;99901.31;4832887;29;20052;-73
2023/07/29 09:07:06;;;;;;;7.82;2.90;;;;;;;20.74;88.49;99906.75;4832796;29;20049;-74
2023/07/29 09:10:12;;;;;;;6.40;2.95;;;;;;;20.81;88.48;99907.81;4807063;29;20125;-74
2023/07/29 09:13:16;;;;;;;5.70;2.67;;;;;;;20.73;90.13;99907.78;4807047;29;20519;-73
2023/07/29 09:16:23;;;;;;;5.75;2.20;;;;;;;20.84;91.17;99899.50;4807056;29;20050;-73
2023/07/29 09:19:27;;;;;;;5.15;2.35;;;;;;;21.03;90.99;99912.53;4806918;29;20143;-73
2023/07/29 09:22:31;;;;;;;4.28;1.65;;;;;;;21.08;90.41;99904.88;4806849;29;20065;-73
2023/07/29 09:25:34;;;;;;;4.35;1.23;;;;;;;21.23;88.89;99906.91;4806761;29;20053;-74
2023/07/29 09:28:39;;;;;;;9.25;3.53;;;;;;;21.24;86.36;99909.38;4806924;29;20053;-74
2023/07/29 09:31:42;;;;;;;4.00;2.10;;;;;;;21.27;80.99;99906.41;4806714;29;20104;-74
2023/07/29 09:34:46;;;;;;;8.02;2.20;;;;;;;21.21;81.44;99911.53;4806797;29;20050;-74
2023/07/29 09:37:51;;;;;;;3.08;1.30;;;;;;;21.31;80.22;99910.41;4806781;29;20107;-74
2023/07/29 09:40:58;;;;;;;3.80;1.00;;;;;;;21.27;75.69;99913.56;4806800;29;20057;-73
2023/07/29 09:44:03;;;;;;;1.95;0.90;;;;;;;21.33;75.34;99918.22;4806605;29;20050;-74
2023/07/29 09:47:06;;;;;;;3.67;0.90;;;;;;;21.09;73.97;99916.31;4806565;29;20050;-74
2023/07/29 09:50:09;;;;;;;3.40;1.10;;;;;;;21.16;76.99;99917.38;4806481;29;20054;-74
2023/07/29 09:53:14;;;;;;;4.72;1.15;;;;;;;21.16;76.85;99912.03;4806390;29;20096;-74
2023/07/29 09:56:17;;;;;;;2.72;1.15;;;;;;;21.30;76.96;99919.38;4806627;29;20065;-74
2023/07/29 09:59:23;;;;;;;3.03;1.25;;;;;;;21.28;75.07;99916.06;4806101;29;20112;-72
2023/07/29 10:02:28;;;;;;;6.38;1.10;;;;;;;21.39;72.46;99922.09;4805585;29;20054;-73
2023/07/29 10:05:34;;;;;;;2.92;0.82;;;;;;;21.30;69.70;99940.63;4806292;29;20138;-73
2023/07/29 10:08:39;;;;;;;3.78;1.20;;;;;;;21.34;70.95;99931.31;4804704;29;20054;-74
2023/07/29 10:11:43;;;;;;;2.13;1.13;;;;;;;21.25;71.13;99942.13;4805288;29;20045;-73
2023/07/29 10:14:48;;;;;;;2.97;0.95;;;;;;;21.17;73.39;99934.97;4805844;29;20487;-73
2023/07/29 10:17:51;;;;;;;2.20;0.90;;;;;;;21.20;73.62;99936.47;4805996;29;20054;-73
2023/07/29 10:20:57;;;;;;;3.45;1.20;;;;;;;21.41;74.25;99944.00;4805803;29;20081;-74
2023/07/29 10:24:09;;;;;;;2.75;1.23;;;;;;;21.45;70.08;99945.38;4805968;29;20050;-75
2023/07/29 10:27:17;;;;;;;3.47;1.30;;;;;;;21.48;71.13;99940.53;4806042;29;20085;-75
2023/07/29 10:30:25;;;;;;;4.60;1.30;;;;;;;21.58;70.94;99943.03;4806204;29;20121;-76
2023/07/29 10:33:32;;;;;;;3.00;1.38;;;;;;;21.76;70.10;99932.22;4805872;29;20053;-75
2023/07/29 10:36:37;;;;;;;2.63;1.00;;;;;;;21.79;70.08;99938.06;4806026;29;20049;-80
2023/07/29 10:39:53;;;;;;;2.50;1.05;;;;;;;21.83;68.83;99938.56;4806024;29;20104;-75
2023/07/29 10:43:10;;;;;;;2.60;1.27;;;;;;;21.88;68.52;99912.25;4806243;29;20583;-77
2023/07/29 10:46:19;;;;;;;4.90;1.17;;;;;;;21.77;68.55;99916.09;4805542;29;20078;-69
2023/07/29 10:49:23;;;;;;;4.32;1.35;;;;;;;21.63;68.99;99907.94;4806020;29;20417;-73
2023/07/29 10:52:35;;;;;;;2.40;1.10;;;;;;;21.57;68.89;99904.97;4805996;29;20470;-75
2023/07/29 10:55:38;;;;;;;3.85;1.85;;;;;;;21.57;69.39;99904.97;4806176;29;20054;-74
2023/07/29 10:58:43;;;;;;;4.53;1.00;;;;;;;21.66;68.95;99904.94;4805697;29;20062;-74
2023/07/29 11:02:18;;;;;;;3.38;1.90;;;;;;;21.61;65.51;99907.31;4805269;29;20104;-74
2023/07/29 11:05:22;;;;;;;3.22;1.50;;;;;;;21.77;67.24;99915.28;4805029;29;20592;-73
2023/07/29 11:08:30;;;;;;;3.47;1.30;;;;;;;21.65;64.99;99916.59;4804635;29;20102;-74
2023/07/29 11:11:33;;;;;;;2.38;1.25;;;;;;;21.85;66.18;99898.44;4804914;29;20508;-77
2023/07/29 11:14:36;;;;;;;3.50;1.30;;;;;;;21.83;62.83;99895.97;4804899;29;20122;-72
2023/07/29 11:17:51;;;;;;;2.47;0.90;;;;;;;21.94;63.12;99903.59;4804412;29;20105;-74
2023/07/29 11:20:55;;;;;;;3.08;1.00;;;;;;;21.94;61.46;99897.44;4803902;29;20053;-74
2023/07/29 11:23:58;;;;;;;3.45;1.08;;;;;;;21.92;59.72;99897.63;4804891;29;20095;-73
2023/07/29 11:27:02;;;;;;;4.38;1.60;;;;;;;21.93;59.00;99896.63;4803510;29;20124;-74
2023/07/29 11:30:27;;;;;;;2.35;1.30;;;;;;;21.96;59.30;99896.28;4804936;29;20061;-74
2023/07/29 11:33:30;;;;;;;2.47;1.38;;;;;;;22.19;59.44;99887.63;4802856;29;20199;-74
2023/07/29 11:36:33;;;;;;;4.20;1.40;;;;;;;22.35;59.58;99889.41;4812671;29;20053;-75
2023/07/29 11:39:41;;;;;;;4.95;1.70;;;;;;;22.39;59.64;99872.88;4803890;29;20054;-75
2023/07/29 11:42:45;;;;;;;3.80;1.17;;;;;;;22.58;59.81;99881.47;4804805;29;20109;-74
2023/07/29 11:45:50;;;;;;;3.90;1.30;;;;;;;22.75;57.97;99883.06;4804723;29;20104;-74
2023/07/29 11:48:56;;;;;;;2.92;1.15;;;;;;;22.97;57.28;99874.31;4804964;29;20092;-74
2023/07/29 11:52:02;;;;;;;1.50;0.73;;;;;;;22.95;56.64;99876.31;4804753;29;20089;-74
2023/07/29 11:55:15;;;;;;;2.28;1.23;;;;;;;22.98;57.81;99862.63;4804877;29;20049;-75
2023/07/29 11:58:21;;;;;;;2.72;1.10;;;;;;;23.27;57.76;99866.44;4804821;29;20066;-75
2023/07/29 12:01:24;;;;;;;2.05;1.15;;;;;;;23.39;56.32;99873.00;4804672;29;20069;-75
2023/07/29 12:04:28;;;;;;;4.15;1.27;;;;;;;23.48;56.02;99856.91;4804571;29;20050;-75
2023/07/29 12:07:35;;;;;;;2.08;1.33;;;;;;;23.60;56.82;99860.81;4804585;29;20042;-78
2023/07/29 12:10:38;;;;;;;2.30;1.20;;;;;;;23.63;56.93;99841.78;4803552;29;20181;-75
2023/07/29 12:13:42;;;;;;;2.08;1.15;;;;;;;23.98;56.44;99847.47;4804570;29;20073;-74
2023/07/29 12:16:48;;;;;;;2.00;0.95;;;;;;;23.81;54.83;99852.16;4804490;29;20057;-75
2023/07/29 12:19:54;;;;;;;3.25;1.02;;;;;;;23.86;55.01;99845.22;4804499;29;20196;-76
2023/07/29 12:23:01;;;;;;;2.08;0.95;;;;;;;23.78;55.26;99837.31;4793242;29;20114;-76
2023/07/29 12:26:04;;;;;;;2.58;1.10;;;;;;;23.76;54.91;99844.66;4804494;29;20049;-76
2023/07/29 12:29:22;;;;;;;2.10;1.05;;;;;;;23.72;55.63;99835.38;4807823;29;20112;-76
2023/07/29 12:32:26;;;;;;;2.72;0.95;;;;;;;23.86;55.29;99836.38;4807749;29;20421;-75
2023/07/29 12:35:39;;;;;;;2.80;1.10;;;;;;;23.85;55.28;99830.22;4807702;29;20050;-75
2023/07/29 12:38:43;;;;;;;3.40;1.63;;;;;;;23.98;54.97;99831.44;4807884;29;20066;-73
2023/07/29 12:41:52;;;;;;;1.83;0.95;;;;;;;24.29;53.96;99832.06;4807525;29;20054;-77
2023/07/29 12:44:56;;;;;;;1.92;1.10;;;;;;;24.54;52.36;99835.28;4807123;29;20059;-75
2023/07/29 12:47:59;;;;;;;1.83;0.93;;;;;;;24.50;52.40;99831.31;4807432;29;20065;-73
2023/07/29 12:51:02;;;;;;;2.70;1.00;;;;;;;24.77;52.20;99819.09;4807797;29;20119;-77
2023/07/29 12:54:05;;;;;;;1.95;0.90;;;;;;;24.95;51.78;99825.84;4806764;29;20052;-78
2023/07/29 12:57:09;;;;;;;2.28;1.02;;;;;;;25.12;49.62;99847.84;4816507;29;20475;-73
2023/07/29 13:00:13;;;;;;;4.75;1.30;;;;;;;25.00;49.07;99831.44;4807526;29;20103;-73
2023/07/29 13:03:16;;;;;;;2.00;1.05;;;;;;;25.23;47.79;99823.25;4807485;29;20112;-76
2023/07/29 13:06:20;;;;;;;2.92;1.63;;;;;;;25.42;49.07;99813.75;4807501;29;20432;-73
2023/07/29 13:09:23;;;;;;;1.88;1.05;;;;;;;25.55;47.92;99813.84;4807526;29;20053;-73
2023/07/29 13:12:27;;;;;;;2.88;1.40;;;;;;;25.59;47.15;99824.97;4807384;29;20041;-73
2023/07/29 13:15:30;;;;;;;3.67;1.05;;;;;;;25.49;47.89;99817.28;4807147;29;20579;-76
2023/07/29 13:18:59;;;;;;;3.25;1.10;;;;;;;24.91;48.57;99821.91;4807054;29;20050;-73
2023/07/29 13:22:03;;;;;;;2.30;1.10;;;;;;;24.79;48.85;99830.44;4806540;29;20049;-74
2023/07/29 13:25:06;;;;;;;3.17;1.20;;;;;;;25.28;47.50;99829.69;4806368;29;20057;-74
2023/07/29 13:28:10;;;;;;;2.33;0.90;;;;;;;25.48;45.93;99834.38;4819914;29;20571;-72
2023/07/29 13:31:13;;;;;;;1.80;0.90;;;;;;;25.89;45.76;99833.66;4824388;29;20049;-72
2023/07/29 13:34:16;;;;;;;2.67;1.00;;;;;;;25.85;45.58;99829.75;4824702;29;20077;-72
2023/07/29 13:37:20;;;;;;;1.60;0.82;;;;;;;26.23;44.38;99821.28;4824608;29;20045;-72
2023/07/29 13:40:23;;;;;;;4.10;0.90;;;;;;;26.24;44.90;99818.41;4824329;29;20523;-71
2023/07/29 13:43:26;;;;;;;2.72;0.90;;;;;;;25.84;45.45;99833.41;4824640;29;20137;-73
2023/07/29 13:46:30;;;;;;;2.10;0.90;;;;;;;25.67;45.77;99816.81;4824494;29;20647;-72
2023/07/29 13:49:33;;;;;;;1.92;1.02;;;;;;;26.29;44.76;99815.13;4824776;29;20092;-75
2023/07/29 13:52:37;;;;;;;1.80;0.80;;;;;;;26.49;44.65;99808.03;4824445;29;20567;-73
2023/07/29 13:55:40;;;;;;;1.92;0.95;;;;;;;27.30;43.57;99817.88;4813431;29;20078;-72
2023/07/29 13:58:44;;;;;;;2.38;1.10;;;;;;;27.60;41.21;99812.94;4824238;29;20142;-75
2023/07/29 14:01:47;;;;;;;4.78;1.00;;;;;;;26.59;43.95;99813.00;4812926;29;20054;-73
2023/07/29 14:04:50;;;;;;;2.65;1.00;;;;;;;26.63;44.17;99811.56;4824404;29;20106;-75
2023/07/29 14:07:54;;;;;;;2.05;1.20;;;;;;;26.79;43.66;99807.69;4824071;29;20452;-75
2023/07/29 14:10:57;;;;;;;5.78;1.40;;;;;;;26.00;49.61;99822.38;4825864;29;20578;-74
2023/07/29 14:14:00;;;;;;;4.05;1.52;;;;;;;25.36;53.33;99825.22;4842639;29;20053;-74
2023/07/29 14:17:04;;;;;;;2.53;1.33;;;;;;;24.59;56.72;99840.88;4842436;29;20155;-75
2023/07/29 14:20:08;;;;;;;3.40;1.45;;;;;;;24.70;56.81;99836.91;4834438;29;20183;-75
2023/07/29 14:23:13;;;;;;;2.85;1.38;;;;;;;26.59;52.47;99829.09;4825363;29;20464;-74
2023/07/29 14:26:17;;;;;;;2.15;1.10;;;;;;;26.11;53.75;99827.22;4823824;29;20057;-75